Kings Point, NY

8:54 AM EST on December 14, 2019 (GMT -0500)
Kensington | | Change Station
Active Advisory: Coastal Flood Statement Active Notice: Coastal Flood Statement

Elev 138 ft 40.79 °N, 73.72 °W | Updated 16 seconds ago

Overcast
Overcast
53.1 °F
Feels Like 53.1 °F
N
0
Wind Variable Wind from ESE
Gusts 0.0 mph

Today
High -- | Low -- °F
--% Chance of Precip.
Yesterday
High -- | Low -- °F
Precip. -- in
Pressure 29.48 in
Visibility 1.0 miles
Clouds Overcast 300 ft
Dew Point 52 °F
Humidity 98%
Rainfall 1.37 in
Snow Depth Not available.
7:11 AM 4:27 PM
Waning Gibbous, 93% visible
SPECI KLGA 141305Z 00000KT 1SM -RA BR OVC003 09/09 A2948 RMK AO2 SFC VIS 1 1/4 RAB1254 P0001 T00940094
Pressure 29.48 in
Visibility 1.0 miles
Clouds Overcast 300 ft
Dew Point 52 °F
Humidity 98%
Rainfall 1.37 in
Snow Depth Not available.
7:11 AM 4:27 PM
Waning Gibbous, 93% visible
SPECI KLGA 141305Z 00000KT 1SM -RA BR OVC003 09/09 A2948 RMK AO2 SFC VIS 1 1/4 RAB1254 P0001 T00940094

Get Your Daily Forecast Email!

Thanks for signing up!

Be on the lookout for a verification email in your inbox.

You'll start receiving severe weather alerts in your inbox..

×

10-Day Weather Forecast

Almanac

Astronomy

Dec. 14, 2019 Rise Set
Actual Time
Civil Twilight
Nautical Twilight
Astronomical Twilight
Moon
Length of Visible Light
Length of Day
Tomorrow will be .
, % of the Moon is Illuminated

Today's Extremes

State Highs State Lows

Community

WunderPhotos

Category 6

Welcome to Category 6. This is the collective home for Weather Underground's featured writeups by Dr. Jeff Masters (right), Bob Henson (left), Chris Burt, and other regular contributors.

Nearby

Air Quality

  Air Quality AQ Index Pollutant
Not available.

Snow Depth

Station Depth Elevation

Earthquake Activity

City Distance Mag. Time & Date
Minimum magnitude displayed is 2.5.

Coastal Water Temperatures

Place Temperature

Stations

Nearby Weather Stations

Station Location Temp. Windchill Dew Point Humidity Wind Precip. Elev Updated Type
                   

Watches & Warnings

Coastal Flood Statement
Issued: 5:21 AM EST Dec. 14, 2019 – National Weather Service

* what... up to one half foot of inundation above ground level
expected in vulnerable areas near the Waterfront and shoreline.

* Where... northern Nassau and northwestern Suffolk counties.

* When... during the times of high tide Saturday morning through
Saturday afternoon.

* Impacts... brief minor flooding of the more vulnerable
locations near the Waterfront and shoreline.

Precautionary/preparedness actions...

Do not drive through flooded roadways.